sensor_id;sensor_type;location;lat;lon;timestamp;pressure;altitude;pressure_sealevel;temperature
70668;BMP280;58242;51.250;-1.118;2022-12-08T00:01:21;100280.03;;;6.29
70668;BMP280;58242;51.250;-1.118;2022-12-08T00:03:47;100275.00;;;6.27
70668;BMP280;58242;51.250;-1.118;2022-12-08T00:06:33;100272.63;;;6.26
70668;BMP280;58242;51.250;-1.118;2022-12-08T00:09:21;100273.22;;;6.23
70668;BMP280;58242;51.250;-1.118;2022-12-08T00:11:47;100273.88;;;6.15
70668;BMP280;58242;51.250;-1.118;2022-12-08T00:14:13;100262.19;;;6.16
70668;BMP280;58242;51.250;-1.118;2022-12-08T00:16:38;100272.50;;;6.17
70668;BMP280;58242;51.250;-1.118;2022-12-08T00:19:04;100266.69;;;6.15
70668;BMP280;58242;51.250;-1.118;2022-12-08T00:21:29;100270.41;;;6.14
70668;BMP280;58242;51.250;-1.118;2022-12-08T00:23:55;100266.22;;;6.14
70668;BMP280;58242;51.250;-1.118;2022-12-08T00:26:21;100265.69;;;6.12
70668;BMP280;58242;51.250;-1.118;2022-12-08T00:28:47;100260.38;;;6.12
70668;BMP280;58242;51.250;-1.118;2022-12-08T00:31:12;100256.16;;;6.11
70668;BMP280;58242;51.250;-1.118;2022-12-08T00:33:38;100251.94;;;6.10
70668;BMP280;58242;51.250;-1.118;2022-12-08T00:36:07;100248.50;;;6.09
70668;BMP280;58242;51.250;-1.118;2022-12-08T00:38:34;100248.50;;;6.09
70668;BMP280;58242;51.250;-1.118;2022-12-08T00:41:00;100240.03;;;6.07
70668;BMP280;58242;51.250;-1.118;2022-12-08T00:43:25;100231.28;;;6.07
70668;BMP280;58242;51.250;-1.118;2022-12-08T00:45:50;100232.66;;;6.04
70668;BMP280;58242;51.250;-1.118;2022-12-08T00:48:16;100232.66;;;6.04
70668;BMP280;58242;51.250;-1.118;2022-12-08T00:50:41;100217.53;;;6.05
70668;BMP280;58242;51.250;-1.118;2022-12-08T00:53:06;100235.63;;;6.03
70668;BMP280;58242;51.250;-1.118;2022-12-08T00:55:32;100231.84;;;6.04
70668;BMP280;58242;51.250;-1.118;2022-12-08T00:57:57;100227.66;;;6.03
70668;BMP280;58242;51.250;-1.118;2022-12-08T01:00:22;100218.09;;;6.02
70668;BMP280;58242;51.250;-1.118;2022-12-08T01:02:47;100218.91;;;6.02
70668;BMP280;58242;51.250;-1.118;2022-12-08T01:05:13;100202.19;;;6.02
70668;BMP280;58242;51.250;-1.118;2022-12-08T01:07:38;100203.25;;;6.01
70668;BMP280;58242;51.250;-1.118;2022-12-08T01:10:04;100197.94;;;6.01
70668;BMP280;58242;51.250;-1.118;2022-12-08T01:12:29;100199.81;;;6.00
70668;BMP280;58242;51.250;-1.118;2022-12-08T01:14:55;100205.91;;;6.01
70668;BMP280;58242;51.250;-1.118;2022-12-08T01:17:20;100193.72;;;6.00
70668;BMP280;58242;51.250;-1.118;2022-12-08T01:19:45;100194.81;;;5.99
70668;BMP280;58242;51.250;-1.118;2022-12-08T01:22:11;100189.50;;;5.99
70668;BMP280;58242;51.250;-1.118;2022-12-08T01:24:36;100189.78;;;5.97
70668;BMP280;58242;51.250;-1.118;2022-12-08T01:27:01;100185.56;;;5.97
70668;BMP280;58242;51.250;-1.118;2022-12-08T01:29:27;100185.88;;;5.95
70668;BMP280;58242;51.250;-1.118;2022-12-08T01:31:52;100178.97;;;5.94
70668;BMP280;58242;51.250;-1.118;2022-12-08T01:34:17;100176.59;;;5.93
70668;BMP280;58242;51.250;-1.118;2022-12-08T01:36:43;100168.94;;;5.91
70668;BMP280;58242;51.250;-1.118;2022-12-08T01:39:13;100171.59;;;5.91
70668;BMP280;58242;51.250;-1.118;2022-12-08T01:41:40;100171.09;;;5.89
70668;BMP280;58242;51.250;-1.118;2022-12-08T01:46:33;100172.47;;;5.87
70668;BMP280;58242;51.250;-1.118;2022-12-08T01:49:12;100164.78;;;5.85
70668;BMP280;58242;51.250;-1.118;2022-12-08T01:51:49;100160.28;;;5.86
70668;BMP280;58242;51.250;-1.118;2022-12-08T01:54:17;100167.75;;;5.84
70668;BMP280;58242;51.250;-1.118;2022-12-08T01:57:00;100169.09;;;5.81
70668;BMP280;58242;51.250;-1.118;2022-12-08T01:59:27;100166.44;;;5.81
70668;BMP280;58242;51.250;-1.118;2022-12-08T02:01:54;100165.66;;;5.81
70668;BMP280;58242;51.250;-1.118;2022-12-08T02:04:19;100159.88;;;5.79
70668;BMP280;58242;51.250;-1.118;2022-12-08T02:06:45;100165.97;;;5.80
70668;BMP280;58242;51.250;-1.118;2022-12-08T02:09:13;100169.69;;;5.79
70668;BMP280;58242;51.250;-1.118;2022-12-08T02:11:38;100156.69;;;5.77
70668;BMP280;58242;51.250;-1.118;2022-12-08T02:14:06;100160.44;;;5.76
70668;BMP280;58242;51.250;-1.118;2022-12-08T02:22:06;100158.94;;;5.70
70668;BMP280;58242;51.250;-1.118;2022-12-08T02:24:39;100155.88;;;5.63
70668;BMP280;58242;51.250;-1.118;2022-12-08T02:30:02;100151.38;;;5.64
70668;BMP280;58242;51.250;-1.118;2022-12-08T02:35:35;100147.09;;;5.63
70668;BMP280;58242;51.250;-1.118;2022-12-08T02:38:27;100134.44;;;5.60
70668;BMP280;58242;51.250;-1.118;2022-12-08T02:43:51;100134.72;;;5.59
70668;BMP280;58242;51.250;-1.118;2022-12-08T02:46:27;100125.69;;;5.60
70668;BMP280;58242;51.250;-1.118;2022-12-08T02:48:54;100124.88;;;5.59
70668;BMP280;58242;51.250;-1.118;2022-12-08T02:51:20;100120.66;;;5.58
70668;BMP280;58242;51.250;-1.118;2022-12-08T02:53:46;100121.44;;;5.59
70668;BMP280;58242;51.250;-1.118;2022-12-08T03:04:53;100097.97;;;5.52
70668;BMP280;58242;51.250;-1.118;2022-12-08T03:07:32;100100.91;;;5.51
70668;BMP280;58242;51.250;-1.118;2022-12-08T03:10:10;100090.59;;;5.49
70668;BMP280;58242;51.250;-1.118;2022-12-08T03:12:41;100093.25;;;5.49
70668;BMP280;58242;51.250;-1.118;2022-12-08T03:15:14;100093.25;;;5.49
70668;BMP280;58242;51.250;-1.118;2022-12-08T03:17:44;100083.72;;;5.48
70668;BMP280;58242;51.250;-1.118;2022-12-08T03:20:13;100089.03;;;5.48
70668;BMP280;58242;51.250;-1.118;2022-12-08T03:22:42;100082.13;;;5.47
70668;BMP280;58242;51.250;-1.118;2022-12-08T03:25:12;100075.25;;;5.46
70668;BMP280;58242;51.250;-1.118;2022-12-08T03:27:38;100074.78;;;5.45
70668;BMP280;58242;51.250;-1.118;2022-12-08T03:30:03;100076.63;;;5.44
70668;BMP280;58242;51.250;-1.118;2022-12-08T03:32:35;100072.13;;;5.45
70668;BMP280;58242;51.250;-1.118;2022-12-08T03:35:08;100069.00;;;5.43
70668;BMP280;58242;51.250;-1.118;2022-12-08T03:37:35;100058.66;;;5.41
70668;BMP280;58242;51.250;-1.118;2022-12-08T03:40:04;100065.03;;;5.40
70668;BMP280;58242;51.250;-1.118;2022-12-08T03:42:29;100057.38;;;5.39
70668;BMP280;58242;51.250;-1.118;2022-12-08T03:44:55;100064.03;;;5.36
70668;BMP280;58242;51.250;-1.118;2022-12-08T03:47:20;100059.03;;;5.35
70668;BMP280;58242;51.250;-1.118;2022-12-08T03:49:45;100057.75;;;5.32
70668;BMP280;58242;51.250;-1.118;2022-12-08T03:52:11;100052.44;;;5.32
70668;BMP280;58242;51.250;-1.118;2022-12-08T03:54:36;100058.06;;;5.31
70668;BMP280;58242;51.250;-1.118;2022-12-08T03:57:01;100059.91;;;5.30
70668;BMP280;58242;51.250;-1.118;2022-12-08T03:59:27;100056.47;;;5.30
70668;BMP280;58242;51.250;-1.118;2022-12-08T04:01:52;100060.19;;;5.29
70668;BMP280;58242;51.250;-1.118;2022-12-08T04:04:17;100054.88;;;5.29
70668;BMP280;58242;51.250;-1.118;2022-12-08T04:06:43;100058.59;;;5.28
70668;BMP280;58242;51.250;-1.118;2022-12-08T04:09:08;100053.63;;;5.27
70668;BMP280;58242;51.250;-1.118;2022-12-08T04:11:33;100048.59;;;5.25
70668;BMP280;58242;51.250;-1.118;2022-12-08T04:13:59;100044.34;;;5.24
70668;BMP280;58242;51.250;-1.118;2022-12-08T04:16:24;100040.16;;;5.23
70668;BMP280;58242;51.250;-1.118;2022-12-08T04:18:52;100042.28;;;5.21
70668;BMP280;58242;51.250;-1.118;2022-12-08T04:21:17;100041.81;;;5.19
70668;BMP280;58242;51.250;-1.118;2022-12-08T04:23:43;100027.25;;;5.17
70668;BMP280;58242;51.250;-1.118;2022-12-08T04:26:09;100031.75;;;5.16
70668;BMP280;58242;51.250;-1.118;2022-12-08T04:28:35;100027.56;;;5.15
70668;BMP280;58242;51.250;-1.118;2022-12-08T04:31:01;100020.69;;;5.14
70668;BMP280;58242;51.250;-1.118;2022-12-08T04:33:27;100019.09;;;5.13
70668;BMP280;58242;51.250;-1.118;2022-12-08T04:35:52;100019.09;;;5.13
70668;BMP280;58242;51.250;-1.118;2022-12-08T04:38:17;100024.72;;;5.12
70668;BMP280;58242;51.250;-1.118;2022-12-08T04:40:43;100017.31;;;5.09
70668;BMP280;58242;51.250;-1.118;2022-12-08T04:43:08;100014.97;;;5.08
70668;BMP280;58242;51.250;-1.118;2022-12-08T04:45:34;100015.25;;;5.06
70668;BMP280;58242;51.250;-1.118;2022-12-08T04:48:00;100007.59;;;5.05
70668;BMP280;58242;51.250;-1.118;2022-12-08T04:50:26;100009.75;;;5.03
70668;BMP280;58242;51.250;-1.118;2022-12-08T04:52:52;100007.09;;;5.03
70668;BMP280;58242;51.250;-1.118;2022-12-08T04:55:17;100010.03;;;5.01
70668;BMP280;58242;51.250;-1.118;2022-12-08T04:57:42;100009.53;;;4.99
70668;BMP280;58242;51.250;-1.118;2022-12-08T05:00:09;100015.13;;;4.98
70668;BMP280;58242;51.250;-1.118;2022-12-08T05:02:34;100013.84;;;4.95
70668;BMP280;58242;51.250;-1.118;2022-12-08T05:05:00;100007.75;;;4.95
70668;BMP280;58242;51.250;-1.118;2022-12-08T05:07:25;100008.06;;;4.94
70668;BMP280;58242;51.250;-1.118;2022-12-08T05:09:50;100015.22;;;4.93
70668;BMP280;58242;51.250;-1.118;2022-12-08T05:12:16;100003.03;;;4.92
70668;BMP280;58242;51.250;-1.118;2022-12-08T05:14:41;100006.75;;;4.91
70668;BMP280;58242;51.250;-1.118;2022-12-08T05:17:06;100006.75;;;4.91
70668;BMP280;58242;51.250;-1.118;2022-12-08T05:19:32;100003.63;;;4.89
70668;BMP280;58242;51.250;-1.118;2022-12-08T05:21:57;99999.38;;;4.88
70668;BMP280;58242;51.250;-1.118;2022-12-08T05:24:22;100000.47;;;4.87
70668;BMP280;58242;51.250;-1.118;2022-12-08T05:26:48;100001.53;;;4.86
70668;BMP280;58242;51.250;-1.118;2022-12-08T05:29:13;100000.75;;;4.86
70668;BMP280;58242;51.250;-1.118;2022-12-08T05:31:38;99997.31;;;4.85
70668;BMP280;58242;51.250;-1.118;2022-12-08T05:34:03;99995.75;;;4.84
70668;BMP280;58242;51.250;-1.118;2022-12-08T05:36:29;99989.19;;;4.82
70668;BMP280;58242;51.250;-1.118;2022-12-08T05:38:56;99996.03;;;4.83
70668;BMP280;58242;51.250;-1.118;2022-12-08T05:41:21;99986.81;;;4.80
70668;BMP280;58242;51.250;-1.118;2022-12-08T05:43:47;99978.06;;;4.80
70668;BMP280;58242;51.250;-1.118;2022-12-08T05:46:13;99984.16;;;4.80
70668;BMP280;58242;51.250;-1.118;2022-12-08T05:48:39;99981.78;;;4.79
70668;BMP280;58242;51.250;-1.118;2022-12-08T05:51:07;99988.66;;;4.80
70668;BMP280;58242;51.250;-1.118;2022-12-08T05:53:37;99981.28;;;4.77
70668;BMP280;58242;51.250;-1.118;2022-12-08T05:56:02;99976.28;;;4.76
70668;BMP280;58242;51.250;-1.118;2022-12-08T05:58:28;99978.13;;;4.75
70668;BMP280;58242;51.250;-1.118;2022-12-08T06:00:53;99987.97;;;4.75
70668;BMP280;58242;51.250;-1.118;2022-12-08T06:03:18;99981.09;;;4.74
70668;BMP280;58242;51.250;-1.118;2022-12-08T06:05:45;99980.03;;;4.75
70668;BMP280;58242;51.250;-1.118;2022-12-08T06:08:11;99975.50;;;4.75
70668;BMP280;58242;51.250;-1.118;2022-12-08T06:10:38;99975.72;;;4.78
70668;BMP280;58242;51.250;-1.118;2022-12-08T06:13:04;99976.22;;;4.80
70668;BMP280;58242;51.250;-1.118;2022-12-08T06:15:29;99977.69;;;4.86
70668;BMP280;58242;51.250;-1.118;2022-12-08T06:17:54;99977.03;;;4.94
70668;BMP280;58242;51.250;-1.118;2022-12-08T06:20:20;99972.66;;;5.03
70668;BMP280;58242;51.250;-1.118;2022-12-08T06:22:45;99965.31;;;5.13
70668;BMP280;58242;51.250;-1.118;2022-12-08T06:25:10;99966.25;;;5.22
70668;BMP280;58242;51.250;-1.118;2022-12-08T06:27:36;99969.00;;;5.30
70668;BMP280;58242;51.250;-1.118;2022-12-08T06:30:01;99962.72;;;5.39
70668;BMP280;58242;51.250;-1.118;2022-12-08T06:32:26;99966.00;;;5.49
70668;BMP280;58242;51.250;-1.118;2022-12-08T06:34:52;99965.31;;;5.57
70668;BMP280;58242;51.250;-1.118;2022-12-08T06:37:17;99960.94;;;5.66
70668;BMP280;58242;51.250;-1.118;2022-12-08T06:39:43;99969.50;;;5.76
70668;BMP280;58242;51.250;-1.118;2022-12-08T06:42:08;99963.00;;;5.82
70668;BMP280;58242;51.250;-1.118;2022-12-08T06:44:52;99965.06;;;5.85
70668;BMP280;58242;51.250;-1.118;2022-12-08T06:47:19;99959.19;;;5.88
70668;BMP280;58242;51.250;-1.118;2022-12-08T06:49:45;99961.53;;;5.89
70668;BMP280;58242;51.250;-1.118;2022-12-08T06:52:10;99952.97;;;5.92
70668;BMP280;58242;51.250;-1.118;2022-12-08T06:54:35;99955.34;;;5.94
70668;BMP280;58242;51.250;-1.118;2022-12-08T06:57:00;99961.44;;;5.94
70668;BMP280;58242;51.250;-1.118;2022-12-08T06:59:26;99958.59;;;5.91
70668;BMP280;58242;51.250;-1.118;2022-12-08T07:01:51;99961.03;;;5.87
70668;BMP280;58242;51.250;-1.118;2022-12-08T07:04:17;99966.44;;;5.82
70668;BMP280;58242;51.250;-1.118;2022-12-08T07:06:42;99958.56;;;5.78
70668;BMP280;58242;51.250;-1.118;2022-12-08T07:09:07;99950.50;;;5.69
70668;BMP280;58242;51.250;-1.118;2022-12-08T07:11:33;99942.94;;;5.63
70668;BMP280;58242;51.250;-1.118;2022-12-08T07:13:58;99952.06;;;5.57
70668;BMP280;58242;51.250;-1.118;2022-12-08T07:16:23;99947.13;;;5.51
70668;BMP280;58242;51.250;-1.118;2022-12-08T07:18:49;99958.13;;;5.45
70668;BMP280;58242;51.250;-1.118;2022-12-08T07:21:16;99950.28;;;5.40
70668;BMP280;58242;51.250;-1.118;2022-12-08T07:23:44;99944.28;;;5.34
70668;BMP280;58242;51.250;-1.118;2022-12-08T07:26:11;99944.66;;;5.28
70668;BMP280;58242;51.250;-1.118;2022-12-08T07:28:38;99950.06;;;5.23
70668;BMP280;58242;51.250;-1.118;2022-12-08T07:31:04;99951.72;;;5.19
70668;BMP280;58242;51.250;-1.118;2022-12-08T07:33:30;99953.38;;;5.15
70668;BMP280;58242;51.250;-1.118;2022-12-08T07:35:57;99944.13;;;5.13
70668;BMP280;58242;51.250;-1.118;2022-12-08T07:38:23;99941.59;;;5.08
70668;BMP280;58242;51.250;-1.118;2022-12-08T07:40:49;99945.59;;;5.06
70668;BMP280;58242;51.250;-1.118;2022-12-08T07:43:15;99947.25;;;5.02
70668;BMP280;58242;51.250;-1.118;2022-12-08T07:45:40;99947.81;;;4.99
70668;BMP280;58242;51.250;-1.118;2022-12-08T07:48:06;99951.84;;;4.96
70668;BMP280;58242;51.250;-1.118;2022-12-08T07:50:32;99952.13;;;4.95
70668;BMP280;58242;51.250;-1.118;2022-12-08T07:52:57;99959.09;;;4.91
70668;BMP280;58242;51.250;-1.118;2022-12-08T07:55:23;99948.00;;;4.89
70668;BMP280;58242;51.250;-1.118;2022-12-08T07:57:49;99953.59;;;4.88
70668;BMP280;58242;51.250;-1.118;2022-12-08T08:00:15;99951.22;;;4.86
70668;BMP280;58242;51.250;-1.118;2022-12-08T08:02:41;99956.03;;;4.84
70668;BMP280;58242;51.250;-1.118;2022-12-08T08:05:06;99953.97;;;4.81
70668;BMP280;58242;51.250;-1.118;2022-12-08T08:07:32;99949.44;;;4.82
70668;BMP280;58242;51.250;-1.118;2022-12-08T08:09:57;99954.22;;;4.80
70668;BMP280;58242;51.250;-1.118;2022-12-08T08:12:23;99962.50;;;4.78
70668;BMP280;58242;51.250;-1.118;2022-12-08T08:14:48;99958.25;;;4.78
70668;BMP280;58242;51.250;-1.118;2022-12-08T08:17:13;99953.75;;;4.78
70668;BMP280;58242;51.250;-1.118;2022-12-08T08:19:39;99962.50;;;4.78
70668;BMP280;58242;51.250;-1.118;2022-12-08T08:22:04;99952.97;;;4.78
70668;BMP280;58242;51.250;-1.118;2022-12-08T08:24:29;99952.16;;;4.77
70668;BMP280;58242;51.250;-1.118;2022-12-08T08:26:55;99953.75;;;4.78
70668;BMP280;58242;51.250;-1.118;2022-12-08T08:29:20;99946.28;;;4.80
70668;BMP280;58242;51.250;-1.118;2022-12-08T08:31:46;99946.59;;;4.78
70668;BMP280;58242;51.250;-1.118;2022-12-08T08:34:11;99941.00;;;4.80
70668;BMP280;58242;51.250;-1.118;2022-12-08T08:36:36;99934.63;;;4.81
70668;BMP280;58242;51.250;-1.118;2022-12-08T08:39:03;99929.03;;;4.82
70668;BMP280;58242;51.250;-1.118;2022-12-08T08:41:28;99927.69;;;4.85
70668;BMP280;58242;51.250;-1.118;2022-12-08T08:43:54;99934.56;;;4.86
70668;BMP280;58242;51.250;-1.118;2022-12-08T08:46:19;99931.59;;;4.87
70668;BMP280;58242;51.250;-1.118;2022-12-08T08:48:44;99933.19;;;4.88
70668;BMP280;58242;51.250;-1.118;2022-12-08T08:51:11;99926.50;;;4.91
70668;BMP280;58242;51.250;-1.118;2022-12-08T08:53:37;99920.94;;;4.92
70668;BMP280;58242;51.250;-1.118;2022-12-08T08:56:09;99925.66;;;4.95
70668;BMP280;58242;51.250;-1.118;2022-12-08T08:58:35;99925.06;;;4.98
70668;BMP280;58242;51.250;-1.118;2022-12-08T09:01:00;99911.25;;;5.01
70668;BMP280;58242;51.250;-1.118;2022-12-08T09:03:25;99917.53;;;5.05
70668;BMP280;58242;51.250;-1.118;2022-12-08T09:05:51;99907.16;;;5.08
70668;BMP280;58242;51.250;-1.118;2022-12-08T09:08:16;99905.19;;;5.13
70668;BMP280;58242;51.250;-1.118;2022-12-08T09:10:42;99905.56;;;5.20
70668;BMP280;58242;51.250;-1.118;2022-12-08T09:13:08;99910.00;;;5.25
70668;BMP280;58242;51.250;-1.118;2022-12-08T09:15:33;99907.00;;;5.31
70668;BMP280;58242;51.250;-1.118;2022-12-08T09:17:58;99908.97;;;5.39
70668;BMP280;58242;51.250;-1.118;2022-12-08T09:20:24;99905.31;;;5.48
70668;BMP280;58242;51.250;-1.118;2022-12-08T09:22:50;99908.00;;;5.61
70668;BMP280;58242;51.250;-1.118;2022-12-08T09:25:15;99905.84;;;5.76
70668;BMP280;58242;51.250;-1.118;2022-12-08T09:27:40;99903.75;;;5.86
70668;BMP280;58242;51.250;-1.118;2022-12-08T09:30:06;99903.25;;;5.97
70668;BMP280;58242;51.250;-1.118;2022-12-08T09:32:32;99907.53;;;6.07
70668;BMP280;58242;51.250;-1.118;2022-12-08T09:34:58;99903.50;;;6.22
70668;BMP280;58242;51.250;-1.118;2022-12-08T09:37:24;99899.78;;;6.45
70668;BMP280;58242;51.250;-1.118;2022-12-08T09:39:49;99899.19;;;6.69
70668;BMP280;58242;51.250;-1.118;2022-12-08T09:42:26;99898.94;;;7.00
70668;BMP280;58242;51.250;-1.118;2022-12-08T09:45:10;99907.09;;;7.33
70668;BMP280;58242;51.250;-1.118;2022-12-08T09:47:42;99894.44;;;7.85
70668;BMP280;58242;51.250;-1.118;2022-12-08T09:50:19;99900.19;;;8.41
70668;BMP280;58242;51.250;-1.118;2022-12-08T09:55:50;99890.19;;;9.69
70668;BMP280;58242;51.250;-1.118;2022-12-08T09:58:38;99890.47;;;10.32
70668;BMP280;58242;51.250;-1.118;2022-12-08T10:01:12;99880.44;;;11.00
70668;BMP280;58242;51.250;-1.118;2022-12-08T10:03:39;99882.56;;;11.73
70668;BMP280;58242;51.250;-1.118;2022-12-08T10:11:39;99886.81;;;13.13
70668;BMP280;58242;51.250;-1.118;2022-12-08T10:16:53;99878.09;;;13.31
70668;BMP280;58242;51.250;-1.118;2022-12-08T10:19:22;99874.44;;;13.23
70668;BMP280;58242;51.250;-1.118;2022-12-08T10:21:48;99875.56;;;13.07
70668;BMP280;58242;51.250;-1.118;2022-12-08T10:24:35;99879.81;;;12.82
70668;BMP280;58242;51.250;-1.118;2022-12-08T10:27:02;99868.59;;;12.53
70668;BMP280;58242;51.250;-1.118;2022-12-08T10:29:28;99868.91;;;12.25
70668;BMP280;58242;51.250;-1.118;2022-12-08T10:31:56;99861.13;;;11.97
70668;BMP280;58242;51.250;-1.118;2022-12-08T10:34:22;99860.94;;;11.66
70668;BMP280;58242;51.250;-1.118;2022-12-08T10:39:36;99860.50;;;11.10
70668;BMP280;58242;51.250;-1.118;2022-12-08T10:42:14;99858.88;;;10.85
70668;BMP280;58242;51.250;-1.118;2022-12-08T10:47:40;99855.41;;;10.33
70668;BMP280;58242;51.250;-1.118;2022-12-08T10:52:37;99850.50;;;9.95
70668;BMP280;58242;51.250;-1.118;2022-12-08T10:55:02;99846.69;;;9.76
70668;BMP280;58242;51.250;-1.118;2022-12-08T10:57:28;99843.75;;;9.61
70668;BMP280;58242;51.250;-1.118;2022-12-08T10:59:53;99837.09;;;9.47
70668;BMP280;58242;51.250;-1.118;2022-12-08T11:02:20;99835.09;;;9.36
70668;BMP280;58242;51.250;-1.118;2022-12-08T11:04:46;99833.91;;;9.25
70668;BMP280;58242;51.250;-1.118;2022-12-08T11:07:20;99835.00;;;9.16
70668;BMP280;58242;51.250;-1.118;2022-12-08T11:09:48;99840.41;;;9.08
70668;BMP280;58242;51.250;-1.118;2022-12-08T11:12:19;99837.75;;;9.00
70668;BMP280;58242;51.250;-1.118;2022-12-08T11:22:42;99835.13;;;8.83
70668;BMP280;58242;51.250;-1.118;2022-12-08T11:25:16;99828.06;;;8.87
70668;BMP280;58242;51.250;-1.118;2022-12-08T11:27:45;99826.19;;;8.88
70668;BMP280;58242;51.250;-1.118;2022-12-08T11:32:47;99822.41;;;8.88
70668;BMP280;58242;51.250;-1.118;2022-12-08T11:37:56;99810.63;;;8.89
70668;BMP280;58242;51.250;-1.118;2022-12-08T11:40:27;99806.56;;;8.92
70668;BMP280;58242;51.250;-1.118;2022-12-08T11:45:55;99797.94;;;8.95
70668;BMP280;58242;51.250;-1.118;2022-12-08T11:48:34;99803.41;;;8.98
70668;BMP280;58242;51.250;-1.118;2022-12-08T11:51:18;99802.16;;;9.04
70668;BMP280;58242;51.250;-1.118;2022-12-08T11:56:24;99790.44;;;9.25
70668;BMP280;58242;51.250;-1.118;2022-12-08T11:59:01;99791.63;;;9.36
70668;BMP280;58242;51.250;-1.118;2022-12-08T12:01:29;99794.19;;;9.60
70668;BMP280;58242;51.250;-1.118;2022-12-08T12:04:04;99775.47;;;9.89
70668;BMP280;58242;51.250;-1.118;2022-12-08T12:21:05;99771.47;;;10.34
70668;BMP280;58242;51.250;-1.118;2022-12-08T12:23:37;99759.22;;;10.33
70668;BMP280;58242;51.250;-1.118;2022-12-08T12:26:15;99766.59;;;10.36
70668;BMP280;58242;51.250;-1.118;2022-12-08T12:28:43;99756.81;;;10.40
70668;BMP280;58242;51.250;-1.118;2022-12-08T12:31:16;99758.81;;;10.43
70668;BMP280;58242;51.250;-1.118;2022-12-08T12:33:45;99751.00;;;10.38
70668;BMP280;58242;51.250;-1.118;2022-12-08T12:36:11;99760.34;;;10.32
70668;BMP280;58242;51.250;-1.118;2022-12-08T12:38:47;99760.44;;;10.24
70668;BMP280;58242;51.250;-1.118;2022-12-08T12:41:41;99761.94;;;10.13
70668;BMP280;58242;51.250;-1.118;2022-12-08T12:57:24;99746.59;;;9.91
70668;BMP280;58242;51.250;-1.118;2022-12-08T13:00:06;99750.47;;;10.13
70668;BMP280;58242;51.250;-1.118;2022-12-08T13:05:08;99743.78;;;10.39
70668;BMP280;58242;51.250;-1.118;2022-12-08T13:07:42;99745.81;;;10.53
70668;BMP280;58242;51.250;-1.118;2022-12-08T13:12:39;99743.22;;;10.77
70668;BMP280;58242;51.250;-1.118;2022-12-08T13:15:05;99735.22;;;10.88
70668;BMP280;58242;51.250;-1.118;2022-12-08T13:17:33;99736.88;;;11.04
70668;BMP280;58242;51.250;-1.118;2022-12-08T13:20:01;99737.25;;;11.38
70668;BMP280;58242;51.250;-1.118;2022-12-08T13:30:44;99722.31;;;13.12
70668;BMP280;58242;51.250;-1.118;2022-12-08T13:33:14;99718.06;;;13.41
70668;BMP280;58242;51.250;-1.118;2022-12-08T13:35:46;99720.63;;;13.53
70668;BMP280;58242;51.250;-1.118;2022-12-08T13:38:18;99726.28;;;13.48
70668;BMP280;58242;51.250;-1.118;2022-12-08T13:40:45;99723.25;;;13.34
70668;BMP280;58242;51.250;-1.118;2022-12-08T13:43:20;99717.41;;;13.14
70668;BMP280;58242;51.250;-1.118;2022-12-08T13:45:48;99720.69;;;12.93
70668;BMP280;58242;51.250;-1.118;2022-12-08T13:48:24;99728.53;;;12.71
70668;BMP280;58242;51.250;-1.118;2022-12-08T13:50:55;99721.06;;;12.49
70668;BMP280;58242;51.250;-1.118;2022-12-08T13:53:27;99714.47;;;12.32
70668;BMP280;58242;51.250;-1.118;2022-12-08T13:55:55;99710.59;;;12.18
70668;BMP280;58242;51.250;-1.118;2022-12-08T13:58:30;99706.31;;;12.02
70668;BMP280;58242;51.250;-1.118;2022-12-08T14:01:21;99705.38;;;11.83
70668;BMP280;58242;51.250;-1.118;2022-12-08T14:03:55;99704.88;;;11.66
70668;BMP280;58242;51.250;-1.118;2022-12-08T14:06:36;99702.88;;;11.51
70668;BMP280;58242;51.250;-1.118;2022-12-08T14:09:06;99710.16;;;11.39
70668;BMP280;58242;51.250;-1.118;2022-12-08T14:11:37;99708.38;;;11.31
70668;BMP280;58242;51.250;-1.118;2022-12-08T14:16:38;99705.59;;;11.28
70668;BMP280;58242;51.250;-1.118;2022-12-08T14:19:31;99701.47;;;11.19
70668;BMP280;58242;51.250;-1.118;2022-12-08T14:21:59;99700.91;;;11.13
70668;BMP280;58242;51.250;-1.118;2022-12-08T14:24:29;99699.91;;;11.06
70668;BMP280;58242;51.250;-1.118;2022-12-08T14:27:00;99706.13;;;10.98
70668;BMP280;58242;51.250;-1.118;2022-12-08T14:29:50;99707.00;;;10.91
70668;BMP280;58242;51.250;-1.118;2022-12-08T14:32:43;99704.31;;;10.79
70668;BMP280;58242;51.250;-1.118;2022-12-08T14:40:04;99704.94;;;10.53
70668;BMP280;58242;51.250;-1.118;2022-12-08T14:42:30;99697.81;;;10.45
70668;BMP280;58242;51.250;-1.118;2022-12-08T14:45:10;99704.38;;;10.36
70668;BMP280;58242;51.250;-1.118;2022-12-08T14:47:35;99712.47;;;10.27
70668;BMP280;58242;51.250;-1.118;2022-12-08T14:50:03;99705.31;;;10.20
70668;BMP280;58242;51.250;-1.118;2022-12-08T14:52:29;99698.47;;;10.10
70668;BMP280;58242;51.250;-1.118;2022-12-08T14:54:55;99694.34;;;10.01
70668;BMP280;58242;51.250;-1.118;2022-12-08T14:57:22;99694.09;;;9.94
70668;BMP280;58242;51.250;-1.118;2022-12-08T14:59:47;99702.97;;;9.87
70668;BMP280;58242;51.250;-1.118;2022-12-08T15:05:03;99695.81;;;9.71
70668;BMP280;58242;51.250;-1.118;2022-12-08T15:07:34;99700.13;;;9.63
70668;BMP280;58242;51.250;-1.118;2022-12-08T15:10:17;99695.63;;;9.56
70668;BMP280;58242;51.250;-1.118;2022-12-08T15:13:25;99690.34;;;9.47
70668;BMP280;58242;51.250;-1.118;2022-12-08T15:15:54;99693.53;;;9.41
70668;BMP280;58242;51.250;-1.118;2022-12-08T15:18:29;99686.81;;;9.35
70668;BMP280;58242;51.250;-1.118;2022-12-08T15:21:00;99692.38;;;9.30
70668;BMP280;58242;51.250;-1.118;2022-12-08T15:23:29;99682.97;;;9.24
70668;BMP280;58242;51.250;-1.118;2022-12-08T15:25:56;99683.16;;;9.20
70668;BMP280;58242;51.250;-1.118;2022-12-08T15:28:23;99686.81;;;9.15
70668;BMP280;58242;51.250;-1.118;2022-12-08T15:30:50;99681.97;;;9.09
70668;BMP280;58242;51.250;-1.118;2022-12-08T15:33:15;99687.97;;;9.06
70668;BMP280;58242;51.250;-1.118;2022-12-08T15:35:41;99700.38;;;9.02
70668;BMP280;58242;51.250;-1.118;2022-12-08T15:38:16;99697.56;;;8.99
70668;BMP280;58242;51.250;-1.118;2022-12-08T15:40:42;99691.16;;;8.91
70668;BMP280;58242;51.250;-1.118;2022-12-08T15:43:09;99692.59;;;8.89
70668;BMP280;58242;51.250;-1.118;2022-12-08T15:45:35;99686.66;;;8.84
70668;BMP280;58242;51.250;-1.118;2022-12-08T15:48:00;99679.63;;;8.79
70668;BMP280;58242;51.250;-1.118;2022-12-08T15:50:26;99681.38;;;8.75
70668;BMP280;58242;51.250;-1.118;2022-12-08T15:52:51;99678.56;;;8.72
70668;BMP280;58242;51.250;-1.118;2022-12-08T15:55:18;99676.84;;;8.68
70668;BMP280;58242;51.250;-1.118;2022-12-08T15:57:46;99677.81;;;8.63
70668;BMP280;58242;51.250;-1.118;2022-12-08T16:02:50;99678.16;;;8.54
70668;BMP280;58242;51.250;-1.118;2022-12-08T16:05:15;99667.69;;;8.49